Time;durP1;ratioP1;P1;durP2;ratioP2;P2;SDS_P1;SDS_P2;PMS_P1;PMS_P2;Temp;Humidity;BMP_temperature;BMP_pressure;BME280_temperature;BME280_humidity;BME280_pressure;Samples;Min_cycle;Max_cycle;Signal;HPM_P1;HPM_P2
2023/08/12 00:00:42;;;;;;;5.15;4.70;;;;;;;14.75;100.00;93492.69;2065603;28;20061;-84
2023/08/12 00:01:43;;;;;;;6.32;4.40;;;;;;;14.74;100.00;93493.88;2057653;28;20065;-84
2023/08/12 00:02:44;;;;;;;7.78;5.30;;;;;;;14.80;100.00;93484.84;2057602;28;20030;-83
2023/08/12 00:03:45;;;;;;;6.20;4.55;;;;;;;14.85;100.00;93486.22;2062002;28;20472;-84
2023/08/12 00:04:47;;;;;;;6.22;4.80;;;;;;;14.77;100.00;93482.25;2058419;28;20030;-84
2023/08/12 00:05:48;;;;;;;5.55;4.63;;;;;;;14.77;100.00;93487.63;2057904;28;20055;-85
2023/08/12 00:06:49;;;;;;;6.82;4.85;;;;;;;14.77;100.00;93483.00;2073570;28;20026;-84
2023/08/12 00:08:00;;;;;;;7.95;4.68;;;;;;;14.81;100.00;93485.59;2081805;28;20696;-84
2023/08/12 00:09:01;;;;;;;7.47;5.13;;;;;;;14.82;100.00;93487.09;2066186;28;20029;-84
2023/08/12 00:10:04;;;;;;;4.57;4.18;;;;;;;14.78;100.00;93483.75;2057119;28;20051;-86
2023/08/12 00:11:05;;;;;;;4.90;4.35;;;;;;;14.75;100.00;93487.31;2064542;28;20034;-84
2023/08/12 00:12:06;;;;;;;5.18;4.22;;;;;;;14.77;100.00;93483.00;2061294;28;20057;-84
2023/08/12 00:13:09;;;;;;;5.95;4.10;;;;;;;14.77;100.00;93479.56;2065889;28;20018;-84
2023/08/12 00:14:10;;;;;;;9.05;5.03;;;;;;;14.72;100.00;93480.13;2065294;28;20165;-84
2023/08/12 00:15:11;;;;;;;5.53;4.70;;;;;;;14.79;100.00;93477.19;2073573;28;20026;-83
2023/08/12 00:16:12;;;;;;;4.97;4.40;;;;;;;14.83;100.00;93472.44;2073357;28;20018;-84
2023/08/12 00:17:13;;;;;;;8.77;5.18;;;;;;;14.85;100.00;93476.22;2065378;28;20027;-84
2023/08/12 00:18:15;;;;;;;5.13;4.63;;;;;;;14.93;100.00;93476.00;2072227;28;20018;-84
2023/08/12 00:19:16;;;;;;;8.00;4.72;;;;;;;14.92;100.00;93471.78;2060868;28;20407;-84
2023/08/12 00:20:16;;;;;;;6.25;4.60;;;;;;;14.89;100.00;93473.41;2076609;28;20033;-83
2023/08/12 00:21:17;;;;;;;6.80;4.57;;;;;;;14.85;100.00;93465.44;2081701;28;20025;-84
2023/08/12 00:22:18;;;;;;;5.93;4.68;;;;;;;14.92;100.00;93463.69;2073488;28;20446;-84
2023/08/12 00:23:20;;;;;;;7.10;4.90;;;;;;;14.88;100.00;93463.06;2065086;28;20058;-85
2023/08/12 00:24:21;;;;;;;6.40;4.60;;;;;;;14.91;100.00;93467.59;2057204;28;20460;-84
2023/08/12 00:25:22;;;;;;;5.07;4.20;;;;;;;14.80;100.00;93459.88;2073559;28;20030;-84
2023/08/12 00:26:22;;;;;;;5.28;4.40;;;;;;;14.85;100.00;93462.75;2081789;28;20021;-85
2023/08/12 00:27:23;;;;;;;6.55;4.57;;;;;;;14.91;100.00;93460.25;2065106;28;20018;-85
2023/08/12 00:28:25;;;;;;;5.78;4.63;;;;;;;14.99;100.00;93458.84;2064981;28;20441;-84
2023/08/12 00:29:26;;;;;;;7.57;4.95;;;;;;;14.94;100.00;93454.03;2073508;28;20057;-83
2023/08/12 00:30:27;;;;;;;5.38;4.40;;;;;;;15.01;100.00;93453.78;2081313;28;20021;-84
2023/08/12 00:31:28;;;;;;;7.85;5.00;;;;;;;15.00;100.00;93454.97;2081701;28;20054;-85
2023/08/12 00:32:29;;;;;;;7.93;4.47;;;;;;;15.05;100.00;93443.63;2081339;28;20021;-84
2023/08/12 00:33:30;;;;;;;7.32;4.60;;;;;;;14.97;100.00;93452.38;2064987;28;20046;-84
2023/08/12 00:34:31;;;;;;;5.43;4.72;;;;;;;14.87;100.00;93462.31;2065446;28;20547;-86
2023/08/12 00:35:32;;;;;;;5.55;4.68;;;;;;;14.90;100.00;93458.00;2073054;28;20022;-86
2023/08/12 00:36:33;;;;;;;7.47;4.70;;;;;;;15.00;100.00;93456.91;2073366;28;20030;-83
2023/08/12 00:37:34;;;;;;;5.53;4.57;;;;;;;15.05;100.00;93450.97;2057583;28;20071;-85
2023/08/12 00:38:35;;;;;;;5.10;4.50;;;;;;;15.05;100.00;93450.97;2064928;28;20411;-84
2023/08/12 00:39:36;;;;;;;5.80;4.60;;;;;;;15.05;100.00;93454.41;2065178;28;20093;-84
2023/08/12 00:40:37;;;;;;;5.15;4.60;;;;;;;15.05;100.00;93442.88;2065087;28;20033;-84
2023/08/12 00:41:44;;;;;;;7.30;4.50;;;;;;;15.05;100.00;93450.97;2081219;28;20132;-85
2023/08/12 00:42:46;;;;;;;6.93;4.50;;;;;;;15.04;100.00;93442.13;2080781;28;20476;-83
2023/08/12 00:43:47;;;;;;;6.55;4.78;;;;;;;15.00;100.00;93446.88;2078695;28;20045;-85
2023/08/12 00:44:48;;;;;;;7.35;4.95;;;;;;;15.03;100.00;93446.03;2073332;28;20033;-83
2023/08/12 00:45:49;;;;;;;7.63;5.13;;;;;;;15.05;100.00;93445.56;2064962;28;20407;-84
2023/08/12 00:46:54;;;;;;;6.18;4.47;;;;;;;15.13;100.00;93440.72;2057932;28;20029;-85
2023/08/12 00:47:56;;;;;;;7.97;4.60;;;;;;;15.13;100.00;93446.84;2065581;28;20105;-84
2023/08/12 00:48:57;;;;;;;7.10;4.30;;;;;;;15.15;100.00;93441.78;2062779;28;20122;-84
2023/08/12 00:49:59;;;;;;;5.60;4.43;;;;;;;15.21;100.00;93447.38;2065191;28;20618;-83
2023/08/12 00:51:00;;;;;;;5.57;4.35;;;;;;;15.24;100.00;93441.09;2073440;28;20026;-85
2023/08/12 00:52:01;;;;;;;6.07;4.75;;;;;;;15.30;100.00;93439.34;2070238;28;20457;-83
2023/08/12 00:53:02;;;;;;;6.97;4.80;;;;;;;15.31;100.00;93443.53;2057306;28;20391;-84
2023/08/12 00:54:06;;;;;;;5.15;4.60;;;;;;;15.32;100.00;93439.66;2055281;28;20361;-84
2023/08/12 00:55:07;;;;;;;6.57;4.78;;;;;;;15.34;100.00;93439.97;2056559;28;20062;-86
2023/08/12 00:56:09;;;;;;;5.13;4.63;;;;;;;15.35;100.00;93441.47;2049050;28;20023;-85
2023/08/12 00:57:14;;;;;;;9.10;5.22;;;;;;;15.40;100.00;93442.84;2054826;28;20022;-85
2023/08/12 00:58:15;;;;;;;6.40;4.88;;;;;;;15.38;100.00;93434.47;2065883;28;20061;-84
2023/08/12 00:59:19;;;;;;;5.55;4.80;;;;;;;15.39;100.00;93436.72;2065006;28;20037;-84
2023/08/12 01:00:21;;;;;;;5.28;4.78;;;;;;;15.43;100.00;93439.28;2065615;28;20037;-84
2023/08/12 01:01:22;;;;;;;7.68;4.70;;;;;;;15.36;100.00;93443.75;2065202;28;20117;-83
2023/08/12 01:02:23;;;;;;;5.53;4.78;;;;;;;15.35;100.00;93441.47;2072362;28;20022;-84
2023/08/12 01:03:25;;;;;;;6.00;4.55;;;;;;;15.37;100.00;93439.13;2072598;28;20017;-85
2023/08/12 01:04:26;;;;;;;7.40;4.72;;;;;;;15.30;100.00;93439.34;2065280;28;20030;-86
2023/08/12 01:05:29;;;;;;;7.45;5.15;;;;;;;15.36;100.00;93442.97;2064719;28;20109;-84
2023/08/12 01:06:34;;;;;;;10.18;5.63;;;;;;;15.38;100.00;93446.00;2065542;28;20408;-84
2023/08/12 01:07:35;;;;;;;5.25;4.70;;;;;;;15.44;100.00;93438.84;2064901;28;20026;-84
2023/08/12 01:08:36;;;;;;;5.55;4.65;;;;;;;15.42;100.00;93440.50;2058667;28;20026;-84
2023/08/12 01:09:37;;;;;;;7.07;5.18;;;;;;;15.35;100.00;93436.09;2058136;28;20084;-84
2023/08/12 01:10:44;;;;;;;8.50;5.00;;;;;;;15.38;100.00;93435.22;2066689;28;20026;-85
2023/08/12 01:12:03;;;;;;;8.32;4.65;;;;;;;15.33;100.00;93433.09;2065078;28;20026;-84
2023/08/12 01:13:16;;;;;;;7.85;5.25;;;;;;;15.33;100.00;93425.03;2053619;28;20027;-85
2023/08/12 01:14:42;;;;;;;7.22;5.22;;;;;;;15.36;100.00;93432.19;2068088;28;20033;-85
2023/08/12 01:15:44;;;;;;;5.30;4.80;;;;;;;15.34;100.00;93424.56;2075563;28;20410;-84
2023/08/12 01:16:50;;;;;;;6.63;4.97;;;;;;;15.40;100.00;93418.63;2072948;28;20030;-84
2023/08/12 01:17:54;;;;;;;6.75;4.97;;;;;;;15.40;100.00;93422.06;2073441;28;20057;-84
2023/08/12 01:18:56;;;;;;;8.65;5.18;;;;;;;15.42;100.00;93417.00;2065230;28;20050;-84
2023/08/12 01:20:12;;;;;;;5.63;5.10;;;;;;;15.37;100.00;93422.94;2056822;28;20415;-84
2023/08/12 01:21:16;;;;;;;6.45;4.90;;;;;;;15.39;100.00;93419.81;2068788;28;20061;-84
2023/08/12 01:22:21;;;;;;;4.97;4.47;;;;;;;15.42;100.00;93408.16;2069637;28;20027;-84
2023/08/12 01:23:22;;;;;;;5.63;4.78;;;;;;;15.45;100.00;93408.03;2072530;28;20021;-84
2023/08/12 01:24:24;;;;;;;5.85;4.60;;;;;;;15.42;100.00;93425.06;2064610;28;20026;-83
2023/08/12 01:25:25;;;;;;;6.95;4.50;;;;;;;15.44;100.00;93413.84;2073156;28;20459;-85
2023/08/12 01:26:26;;;;;;;9.57;4.88;;;;;;;15.38;100.00;93418.31;2086396;28;20033;-85
2023/08/12 01:27:27;;;;;;;5.60;5.00;;;;;;;15.44;100.00;93417.28;2072873;28;20356;-84
2023/08/12 01:28:28;;;;;;;5.82;4.55;;;;;;;15.46;100.00;93414.94;2061949;28;20041;-84
2023/08/12 01:29:29;;;;;;;7.60;4.80;;;;;;;15.45;100.00;93415.34;2072774;28;20025;-84
2023/08/12 01:30:32;;;;;;;5.13;4.63;;;;;;;15.49;100.00;93411.34;2065075;28;20032;-84
2023/08/12 01:31:47;;;;;;;8.10;4.63;;;;;;;15.45;100.00;93418.81;2062036;28;20383;-86
2023/08/12 01:33:18;;;;;;;8.52;5.00;;;;;;;15.49;100.00;93413.28;2059061;28;20031;-85
2023/08/12 01:34:29;;;;;;;7.20;4.85;;;;;;;15.45;100.00;93413.44;2072519;28;20025;-84
2023/08/12 01:35:39;;;;;;;7.07;5.25;;;;;;;15.50;100.00;93415.56;2073107;28;20431;-84
2023/08/12 01:36:46;;;;;;;5.65;4.95;;;;;;;15.50;100.00;93415.56;2067157;28;20026;-84
2023/08/12 01:37:51;;;;;;;8.68;5.03;;;;;;;15.50;100.00;93407.47;2064679;28;20113;-85
2023/08/12 01:38:55;;;;;;;6.53;5.00;;;;;;;15.52;100.00;93413.16;2073392;28;20021;-85
2023/08/12 01:40:00;;;;;;;7.20;5.75;;;;;;;15.45;100.00;93407.28;2073050;28;20037;-85
2023/08/12 01:41:01;;;;;;;8.02;5.55;;;;;;;15.45;100.00;93407.28;2064961;28;20513;-84
2023/08/12 01:42:11;;;;;;;7.53;5.10;;;;;;;15.47;100.00;93402.97;2056728;28;20030;-83
2023/08/12 01:43:13;;;;;;;6.25;5.07;;;;;;;15.43;100.00;93406.97;2052400;28;20023;-86
2023/08/12 01:44:14;;;;;;;9.20;5.38;;;;;;;15.48;100.00;93399.06;2059998;28;20026;-86
2023/08/12 01:45:15;;;;;;;5.75;5.13;;;;;;;15.46;100.00;93398.03;2064471;28;20026;-84
2023/08/12 01:46:16;;;;;;;8.25;5.50;;;;;;;15.49;100.00;93400.56;2059208;28;20023;-85
2023/08/12 01:47:17;;;;;;;6.68;5.30;;;;;;;15.47;100.00;93394.88;2073008;28;20391;-84
2023/08/12 01:48:22;;;;;;;7.30;5.55;;;;;;;15.49;100.00;93400.56;2061548;28;20029;-85
2023/08/12 01:49:24;;;;;;;7.35;5.57;;;;;;;15.57;100.00;93399.13;2061231;28;20023;-84
2023/08/12 01:50:25;;;;;;;7.03;5.50;;;;;;;15.58;100.00;93402.56;2064862;28;20468;-84
2023/08/12 01:51:29;;;;;;;6.07;5.47;;;;;;;15.58;100.00;93397.94;2053937;28;20051;-84
2023/08/12 01:52:31;;;;;;;6.63;5.35;;;;;;;15.56;100.00;93397.63;2057683;28;20113;-84
2023/08/12 01:53:32;;;;;;;8.30;5.82;;;;;;;15.66;100.00;93397.69;2063053;28;20472;-83
2023/08/12 01:54:34;;;;;;;7.40;5.10;;;;;;;15.66;100.00;93395.00;2064493;28;20026;-84
2023/08/12 01:55:37;;;;;;;11.85;5.75;;;;;;;15.61;100.00;93399.75;2065677;28;20022;-84
2023/08/12 01:56:38;;;;;;;10.13;5.70;;;;;;;15.47;100.00;93404.91;2072434;28;20496;-85
2023/08/12 01:57:39;;;;;;;6.25;5.40;;;;;;;15.46;100.00;93403.41;2072986;28;20813;-83
2023/08/12 01:58:40;;;;;;;7.63;5.32;;;;;;;15.43;100.00;93406.97;2079753;28;20025;-84
2023/08/12 01:59:43;;;;;;;6.00;5.40;;;;;;;15.47;100.00;93408.34;2072696;28;20017;-84
2023/08/12 02:00:44;;;;;;;8.00;4.72;;;;;;;15.48;100.00;93404.44;2065037;28;20094;-84
2023/08/12 02:01:46;;;;;;;9.30;5.00;;;;;;;15.46;100.00;93406.09;2072833;28;20022;-84
2023/08/12 02:02:53;;;;;;;7.23;5.10;;;;;;;15.43;100.00;93405.03;2080842;28;20025;-84
2023/08/12 02:03:54;;;;;;;5.43;4.90;;;;;;;15.38;100.00;93402.16;2065976;28;20026;-85
2023/08/12 02:04:55;;;;;;;6.78;5.18;;;;;;;15.40;100.00;93399.75;2064603;28;20048;-85
2023/08/12 02:05:56;;;;;;;8.18;5.20;;;;;;;15.42;100.00;93405.47;2056557;28;20026;-84
2023/08/12 02:06:57;;;;;;;7.75;5.22;;;;;;;15.38;100.00;93400.22;2064486;28;20426;-86
2023/08/12 02:07:58;;;;;;;8.77;5.55;;;;;;;15.32;100.00;93405.41;2067057;28;20542;-88
2023/08/12 02:08:58;;;;;;;7.22;5.55;;;;;;;15.33;100.00;93398.84;2064437;28;20054;-84
2023/08/12 02:09:59;;;;;;;6.72;5.72;;;;;;;15.31;100.00;93406.59;2059342;28;20026;-84
2023/08/12 02:11:02;;;;;;;7.85;5.18;;;;;;;15.34;100.00;93404.97;2071182;28;20494;-84
2023/08/12 02:12:03;;;;;;;6.13;4.82;;;;;;;15.32;100.00;93400.03;2070142;28;20033;-84
2023/08/12 02:13:04;;;;;;;6.40;4.95;;;;;;;15.35;100.00;93404.50;2072666;28;20026;-84
2023/08/12 02:14:05;;;;;;;7.55;5.15;;;;;;;15.36;100.00;93394.50;2064684;28;20022;-86
2023/08/12 02:15:07;;;;;;;6.20;5.25;;;;;;;15.43;100.00;93394.25;2072374;28;20033;-84
2023/08/12 02:16:08;;;;;;;9.20;5.68;;;;;;;15.43;100.00;93398.88;2064613;28;20463;-83
2023/08/12 02:17:09;;;;;;;8.00;5.60;;;;;;;15.47;100.00;93399.50;2070904;28;20052;-84
2023/08/12 02:18:10;;;;;;;9.15;5.22;;;;;;;15.48;100.00;93395.63;2064613;28;20030;-85
2023/08/12 02:19:11;;;;;;;8.07;5.20;;;;;;;15.55;100.00;93398.81;2064583;28;20094;-84
2023/08/12 02:20:12;;;;;;;5.70;4.78;;;;;;;15.59;100.00;93393.31;2064359;28;20546;-83
2023/08/12 02:22:29;;;;;;;9.40;5.40;;;;;;;15.52;100.00;93393.56;2147203;27;20242;-80
2023/08/12 02:23:30;;;;;;;8.18;4.93;;;;;;;15.50;100.00;93390.56;2120760;28;20143;-82
2023/08/12 02:24:31;;;;;;;8.48;5.80;;;;;;;15.49;100.00;93395.16;2112735;27;20478;-81
2023/08/12 02:25:32;;;;;;;9.05;5.35;;;;;;;15.51;100.00;93395.50;2129689;27;20064;-81
2023/08/12 02:26:34;;;;;;;9.20;5.05;;;;;;;15.53;100.00;93386.97;2120888;28;20085;-81
2023/08/12 02:27:35;;;;;;;6.72;5.22;;;;;;;15.52;100.00;93391.59;2113225;27;20027;-81
2023/08/12 02:28:36;;;;;;;10.00;5.57;;;;;;;15.45;100.00;93383.81;2120798;27;20052;-80
2023/08/12 02:29:37;;;;;;;7.35;4.88;;;;;;;15.54;100.00;93389.25;2111711;28;20416;-81
2023/08/12 02:30:38;;;;;;;7.28;4.97;;;;;;;15.48;100.00;93385.59;2113070;27;20440;-80
2023/08/12 02:31:39;;;;;;;9.80;5.40;;;;;;;15.51;100.00;93387.41;2120711;28;20442;-81
2023/08/12 02:32:43;;;;;;;8.57;5.00;;;;;;;15.53;100.00;93382.31;2113037;28;20035;-81
2023/08/12 02:33:44;;;;;;;6.68;5.22;;;;;;;15.48;100.00;93382.16;2127210;27;20029;-80
2023/08/12 02:34:49;;;;;;;9.32;5.22;;;;;;;15.51;100.00;93373.94;2112090;28;20024;-81
2023/08/12 02:35:53;;;;;;;9.88;5.28;;;;;;;15.54;100.00;93381.16;2096965;28;20043;-84
2023/08/12 02:36:54;;;;;;;7.47;5.18;;;;;;;15.57;100.00;93377.56;2120931;28;20023;-83
2023/08/12 02:37:55;;;;;;;6.22;5.45;;;;;;;15.59;100.00;93374.44;2112919;28;20560;-81
2023/08/12 02:38:56;;;;;;;13.02;5.38;;;;;;;15.58;100.00;93381.78;2112522;28;20032;-80
2023/08/12 02:39:57;;;;;;;8.13;5.18;;;;;;;15.56;100.00;93373.38;2112026;28;20023;-81
2023/08/12 02:40:58;;;;;;;6.38;5.22;;;;;;;15.58;100.00;93365.63;2121181;28;20034;-84
2023/08/12 02:41:59;;;;;;;6.68;5.35;;;;;;;15.64;100.00;93373.13;2109959;28;20119;-84
2023/08/12 02:43:00;;;;;;;7.60;5.10;;;;;;;15.62;100.00;93371.59;2105335;28;20468;-80
2023/08/12 02:44:01;;;;;;;7.25;4.68;;;;;;;15.65;100.00;93363.88;2109810;28;20023;-81
2023/08/12 02:45:02;;;;;;;9.18;5.05;;;;;;;15.65;100.00;93371.94;2109212;28;20310;-84
2023/08/12 02:46:04;;;;;;;8.48;5.20;;;;;;;15.65;100.00;93361.91;2110671;28;20382;-84
2023/08/12 02:47:04;;;;;;;7.40;5.18;;;;;;;15.65;100.00;93367.31;2112354;28;20028;-81
2023/08/12 02:48:06;;;;;;;8.63;4.88;;;;;;;15.62;100.00;93368.91;2112502;28;20158;-82
2023/08/12 02:49:07;;;;;;;9.77;6.13;;;;;;;15.62;100.00;93360.81;2119429;28;20067;-81
2023/08/12 02:50:08;;;;;;;7.68;5.65;;;;;;;15.59;100.00;93363.66;2128509;27;20023;-81
2023/08/12 02:51:10;;;;;;;8.10;4.95;;;;;;;15.60;100.00;93368.59;2123123;27;20390;-81
2023/08/12 02:52:12;;;;;;;6.78;4.35;;;;;;;15.60;100.00;93365.91;2119427;28;20023;-80
2023/08/12 02:53:15;;;;;;;9.52;5.40;;;;;;;15.59;100.00;93361.72;2120709;28;20027;-81
2023/08/12 02:54:16;;;;;;;6.22;5.32;;;;;;;15.52;100.00;93372.75;2112829;28;20031;-82
2023/08/12 02:55:17;;;;;;;8.45;5.05;;;;;;;15.57;100.00;93372.19;2101286;28;20416;-82
2023/08/12 02:56:22;;;;;;;6.22;5.15;;;;;;;15.56;100.00;93370.69;2104082;28;20032;-81
2023/08/12 02:57:23;;;;;;;7.45;5.35;;;;;;;15.54;100.00;93366.91;2104963;28;20454;-81
2023/08/12 02:58:24;;;;;;;8.98;5.30;;;;;;;15.41;100.00;93366.22;2098639;28;20024;-81
2023/08/12 02:59:25;;;;;;;9.43;4.90;;;;;;;15.48;100.00;93368.69;2104280;28;20020;-82
2023/08/12 03:00:27;;;;;;;11.90;5.28;;;;;;;15.49;100.00;93359.41;2109173;28;20027;-82
2023/08/12 03:01:29;;;;;;;5.70;5.05;;;;;;;15.48;100.00;93358.66;2091093;28;20053;-81
2023/08/12 03:02:31;;;;;;;8.43;5.07;;;;;;;15.41;100.00;93353.53;2096393;28;20021;-80
2023/08/12 03:03:32;;;;;;;7.90;5.50;;;;;;;15.39;100.00;93358.59;2111982;27;20058;-81
2023/08/12 03:04:33;;;;;;;7.15;5.28;;;;;;;15.29;100.00;93352.41;2112574;28;20023;-81
2023/08/12 03:05:34;;;;;;;10.73;5.60;;;;;;;15.28;100.00;93360.94;2095461;28;20021;-80
2023/08/12 03:06:35;;;;;;;7.72;5.47;;;;;;;15.32;100.00;93358.84;2095240;28;20134;-82
2023/08/12 03:07:36;;;;;;;13.73;5.55;;;;;;;15.32;100.00;93358.84;2103972;28;20032;-81
2023/08/12 03:08:37;;;;;;;7.10;5.68;;;;;;;15.33;100.00;93352.28;2112194;28;20020;-81
2023/08/12 03:09:38;;;;;;;7.75;5.30;;;;;;;15.32;100.00;93356.16;2112420;28;20115;-80
2023/08/12 03:10:39;;;;;;;7.75;6.18;;;;;;;15.34;100.00;93351.09;2114964;28;20023;-81
2023/08/12 03:11:40;;;;;;;9.73;6.68;;;;;;;15.27;100.00;93354.78;2102248;28;20013;-81
2023/08/12 03:12:41;;;;;;;8.65;5.38;;;;;;;15.24;100.00;93355.69;2095823;28;20027;-81
2023/08/12 03:13:42;;;;;;;10.38;5.82;;;;;;;15.28;100.00;93358.25;2100735;28;20111;-80
2023/08/12 03:14:43;;;;;;;8.57;5.32;;;;;;;15.27;100.00;93359.41;2104214;28;20028;-81
2023/08/12 03:15:44;;;;;;;7.82;5.60;;;;;;;15.26;100.00;93363.31;2112133;28;20028;-81
2023/08/12 03:16:48;;;;;;;6.88;5.95;;;;;;;15.27;100.00;93351.34;2120933;27;20038;-83
2023/08/12 03:17:51;;;;;;;7.88;5.32;;;;;;;15.30;100.00;93362.00;2112505;28;20088;-84
2023/08/12 03:18:52;;;;;;;6.45;5.63;;;;;;;15.28;100.00;93355.56;2098045;28;20559;-83
2023/08/12 03:19:54;;;;;;;10.52;5.72;;;;;;;15.28;100.00;93353.63;2095815;28;20103;-83
2023/08/12 03:20:55;;;;;;;8.90;6.00;;;;;;;15.19;100.00;93358.94;2120756;28;20559;-84
2023/08/12 03:21:56;;;;;;;6.50;5.38;;;;;;;15.19;100.00;93352.78;2125746;27;20074;-84
2023/08/12 03:22:56;;;;;;;7.05;5.50;;;;;;;15.14;100.00;93362.19;2120721;28;20127;-83
2023/08/12 03:23:57;;;;;;;7.20;5.45;;;;;;;15.18;100.00;93354.72;2104363;28;20028;-83
2023/08/12 03:24:58;;;;;;;8.40;5.20;;;;;;;15.15;100.00;93361.00;2096528;28;20016;-84
2023/08/12 03:25:59;;;;;;;6.72;5.80;;;;;;;15.11;100.00;93355.75;2097878;28;20400;-83
2023/08/12 03:27:00;;;;;;;6.07;4.93;;;;;;;15.19;100.00;93358.16;2091299;28;20025;-83
2023/08/12 03:28:04;;;;;;;6.10;5.55;;;;;;;15.15;100.00;93357.56;2112526;28;20028;-83
2023/08/12 03:29:04;;;;;;;8.50;5.57;;;;;;;15.10;100.00;93359.63;2112802;28;20049;-83
2023/08/12 03:30:07;;;;;;;6.95;5.63;;;;;;;15.08;100.00;93358.56;2108029;28;20375;-83
2023/08/12 03:31:09;;;;;;;6.38;5.30;;;;;;;14.95;100.00;93357.84;2095554;28;20029;-83
2023/08/12 03:32:10;;;;;;;11.73;5.68;;;;;;;14.97;100.00;93360.84;2092159;28;20048;-84
2023/08/12 03:33:10;;;;;;;6.63;5.55;;;;;;;14.90;100.00;93361.13;2091421;28;20044;-83
2023/08/12 03:34:11;;;;;;;8.77;5.90;;;;;;;14.90;100.00;93358.44;2097637;28;20102;-83
2023/08/12 03:35:12;;;;;;;8.10;5.82;;;;;;;14.85;100.00;93349.72;2098254;28;20036;-84
2023/08/12 03:36:13;;;;;;;7.90;5.70;;;;;;;14.96;100.00;93357.41;2090196;28;20052;-81
2023/08/12 03:37:14;;;;;;;6.40;5.63;;;;;;;14.91;100.00;93354.53;2092246;28;20029;-81
2023/08/12 03:38:16;;;;;;;7.90;5.60;;;;;;;14.85;100.00;93357.03;2098413;28;20025;-81
2023/08/12 03:39:17;;;;;;;9.68;5.80;;;;;;;14.95;100.00;93360.56;2106975;28;20436;-80
2023/08/12 03:40:20;;;;;;;9.73;5.72;;;;;;;14.95;100.00;93361.31;2106059;28;20055;-82
2023/08/12 03:41:25;;;;;;;7.13;5.43;;;;;;;14.92;100.00;93353.34;2103855;28;20237;-81
2023/08/12 03:42:26;;;;;;;9.60;5.60;;;;;;;14.90;100.00;93356.47;2105604;28;20024;-81
2023/08/12 03:43:27;;;;;;;10.07;5.60;;;;;;;14.90;100.00;93359.19;2107465;28;20024;-81
2023/08/12 03:44:28;;;;;;;6.32;5.68;;;;;;;14.85;100.00;93363.19;2115028;28;20020;-82
2023/08/12 03:45:29;;;;;;;6.38;5.57;;;;;;;14.79;100.00;93356.09;2106538;28;20023;-81
2023/08/12 03:46:31;;;;;;;8.80;6.30;;;;;;;14.77;100.00;93367.28;2114962;28;20016;-81
2023/08/12 03:47:32;;;;;;;6.40;5.70;;;;;;;14.78;100.00;93362.66;2105916;28;20344;-80
2023/08/12 03:48:33;;;;;;;6.93;5.10;;;;;;;14.70;100.00;93358.69;2105059;28;20122;-80
2023/08/12 03:49:33;;;;;;;9.38;5.43;;;;;;;14.73;100.00;93365.91;2106403;28;20031;-80
2023/08/12 03:50:36;;;;;;;5.60;5.10;;;;;;;14.66;100.00;93358.06;2111300;28;20041;-80
2023/08/12 03:51:37;;;;;;;10.38;5.90;;;;;;;14.50;100.00;93365.13;2098466;28;20775;-82
2023/08/12 03:52:39;;;;;;;6.50;5.88;;;;;;;14.50;100.00;93367.81;2106503;27;20078;-83
2023/08/12 03:53:40;;;;;;;5.70;5.03;;;;;;;14.48;100.00;93366.69;2123716;27;20492;-83
2023/08/12 03:54:41;;;;;;;6.75;5.60;;;;;;;14.63;100.00;93367.78;2106392;28;20099;-83
2023/08/12 03:55:42;;;;;;;7.22;5.22;;;;;;;14.54;100.00;93360.38;2104684;28;20385;-84
2023/08/12 03:56:43;;;;;;;6.20;5.47;;;;;;;14.58;100.00;93363.69;2115056;28;20441;-84
2023/08/12 03:57:44;;;;;;;11.90;5.88;;;;;;;14.53;100.00;93363.47;2106320;28;20073;-84
2023/08/12 03:58:45;;;;;;;7.03;5.97;;;;;;;14.49;100.00;93362.88;2113900;28;20035;-83
2023/08/12 03:59:46;;;;;;;6.13;5.53;;;;;;;14.53;100.00;93366.16;2115168;28;20442;-80
2023/08/12 04:00:47;;;;;;;6.65;5.90;;;;;;;14.59;100.00;93359.06;2097418;28;20448;-82
2023/08/12 04:01:48;;;;;;;9.48;5.75;;;;;;;14.63;100.00;93354.31;2106105;28;20020;-81
2023/08/12 04:02:49;;;;;;;7.45;6.00;;;;;;;14.54;100.00;93363.06;2115305;28;20053;-81
2023/08/12 04:03:50;;;;;;;9.07;6.05;;;;;;;14.46;100.00;93359.06;2110705;28;20039;-82
2023/08/12 04:04:51;;;;;;;10.52;5.75;;;;;;;14.47;100.00;93357.88;2106346;28;20179;-81
2023/08/12 04:05:53;;;;;;;6.55;5.13;;;;;;;14.62;100.00;93360.91;2112796;28;20031;-80
2023/08/12 04:06:54;;;;;;;6.88;6.10;;;;;;;14.65;100.00;93362.69;2105888;28;20020;-81
2023/08/12 04:07:55;;;;;;;11.10;5.88;;;;;;;14.66;100.00;93361.50;2105647;28;20791;-82
2023/08/12 04:08:55;;;;;;;7.35;5.88;;;;;;;14.66;100.00;93358.81;2102616;28;20031;-81
2023/08/12 04:09:56;;;;;;;7.18;5.95;;;;;;;14.69;100.00;93365.28;2113811;28;20120;-82
2023/08/12 04:10:58;;;;;;;11.10;5.95;;;;;;;14.69;100.00;93365.28;2115977;27;20459;-80
2023/08/12 04:11:59;;;;;;;8.15;5.47;;;;;;;14.70;100.00;93356.00;2114311;28;20019;-82
2023/08/12 04:13:00;;;;;;;7.05;5.80;;;;;;;14.82;100.00;93364.03;2106560;28;20024;-81
2023/08/12 04:14:01;;;;;;;10.32;6.00;;;;;;;14.72;100.00;93365.16;2100580;28;20416;-81
2023/08/12 04:15:04;;;;;;;6.97;6.10;;;;;;;14.78;100.00;93370.72;2103691;28;20034;-81
2023/08/12 04:16:05;;;;;;;6.65;5.68;;;;;;;14.80;100.00;93369.13;2106912;28;20024;-82
2023/08/12 04:17:07;;;;;;;8.77;5.32;;;;;;;14.78;100.00;93365.34;2100064;28;20037;-81
2023/08/12 04:18:08;;;;;;;8.00;5.55;;;;;;;14.76;100.00;93367.75;2098053;28;20099;-81
2023/08/12 04:19:09;;;;;;;8.38;5.75;;;;;;;14.80;100.00;93363.00;2105774;28;20012;-80
2023/08/12 04:20:10;;;;;;;8.85;5.55;;;;;;;14.85;100.00;93363.19;2114295;27;20144;-81
2023/08/12 04:21:12;;;;;;;11.80;5.93;;;;;;;14.85;100.00;93357.03;2114918;28;20085;-81
2023/08/12 04:22:13;;;;;;;7.10;5.70;;;;;;;14.78;100.00;93347.25;2105608;28;20035;-82
2023/08/12 04:23:14;;;;;;;7.53;5.75;;;;;;;14.79;100.00;93356.84;2106520;28;20016;-81
2023/08/12 04:24:15;;;;;;;7.07;5.57;;;;;;;14.85;100.00;93357.03;2100064;28;20062;-81
2023/08/12 04:25:18;;;;;;;7.20;5.70;;;;;;;14.83;100.00;93356.72;2100533;28;20031;-81
2023/08/12 04:26:19;;;;;;;7.75;5.95;;;;;;;14.90;100.00;93353.78;2085659;28;20492;-81
2023/08/12 04:27:20;;;;;;;11.40;6.22;;;;;;;14.89;100.00;93354.25;2093899;28;20033;-80
2023/08/12 04:28:23;;;;;;;10.57;5.72;;;;;;;14.86;100.00;93347.78;2098007;28;20024;-81
2023/08/12 04:29:27;;;;;;;7.50;5.90;;;;;;;14.93;100.00;93352.19;2090268;28;20025;-81
2023/08/12 04:30:29;;;;;;;7.43;5.65;;;;;;;14.99;100.00;93355.81;2084807;28;20056;-80
2023/08/12 04:31:30;;;;;;;9.70;6.28;;;;;;;15.07;100.00;93347.03;2106338;28;20020;-80
2023/08/12 04:32:31;;;;;;;8.45;6.18;;;;;;;14.99;100.00;93358.50;2101519;28;20017;-82
2023/08/12 04:33:35;;;;;;;6.47;5.80;;;;;;;14.96;100.00;93352.03;2107112;28;20031;-81
2023/08/12 04:34:36;;;;;;;7.03;6.05;;;;;;;15.01;100.00;93351.50;2103224;28;20058;-81
2023/08/12 04:35:39;;;;;;;8.25;5.90;;;;;;;15.00;100.00;93360.00;2087200;28;20485;-81
2023/08/12 04:36:40;;;;;;;9.48;6.43;;;;;;;15.02;100.00;93350.28;2089783;28;20078;-80
2023/08/12 04:37:41;;;;;;;8.98;6.05;;;;;;;15.03;100.00;93356.44;2094589;28;20509;-81
2023/08/12 04:38:41;;;;;;;9.95;6.18;;;;;;;15.06;100.00;93355.56;2106392;28;20032;-81
2023/08/12 04:39:42;;;;;;;8.95;6.35;;;;;;;14.97;100.00;93353.56;2105828;28;20020;-80
2023/08/12 04:40:44;;;;;;;7.82;5.40;;;;;;;14.98;100.00;93352.38;2111403;28;20024;-81
2023/08/12 04:41:50;;;;;;;11.68;6.07;;;;;;;15.01;100.00;93348.03;2108043;28;20503;-81
2023/08/12 04:42:51;;;;;;;9.85;6.15;;;;;;;14.95;100.00;93355.16;2098474;28;20032;-81
2023/08/12 04:43:52;;;;;;;6.65;5.97;;;;;;;14.98;100.00;93362.38;2097271;28;20025;-80
2023/08/12 04:44:53;;;;;;;10.20;6.22;;;;;;;15.00;100.00;93358.03;2105817;28;20031;-81
2023/08/12 04:45:54;;;;;;;8.02;5.70;;;;;;;15.03;100.00;93359.88;2109139;28;20066;-81
2023/08/12 04:46:55;;;;;;;8.32;6.18;;;;;;;15.06;100.00;93350.94;2114547;28;20044;-81
2023/08/12 04:47:57;;;;;;;9.07;6.20;;;;;;;14.97;100.00;93348.16;2091962;28;20460;-80
2023/08/12 04:48:58;;;;;;;12.43;6.47;;;;;;;14.97;100.00;93353.56;2089318;28;20063;-81
2023/08/12 04:49:59;;;;;;;9.05;6.70;;;;;;;15.09;100.00;93358.09;2106235;28;20051;-80